sensor_id;sensor_type;location;lat;lon;timestamp;P1;durP1;ratioP1;P2;durP2;ratioP2
74670;SDS011;63196;39.564;2.628;2023-03-20T00:01:38;2.70;;;0.40;;
74670;SDS011;63196;39.564;2.628;2023-03-20T00:04:04;1.10;;;0.30;;
74670;SDS011;63196;39.564;2.628;2023-03-20T00:06:29;2.40;;;0.70;;
74670;SDS011;63196;39.564;2.628;2023-03-20T00:08:55;1.50;;;0.60;;
74670;SDS011;63196;39.564;2.628;2023-03-20T00:11:34;1.20;;;0.40;;
74670;SDS011;63196;39.564;2.628;2023-03-20T00:14:04;1.10;;;0.50;;
74670;SDS011;63196;39.564;2.628;2023-03-20T00:16:31;1.50;;;0.40;;
74670;SDS011;63196;39.564;2.628;2023-03-20T00:18:58;2.30;;;0.70;;
74670;SDS011;63196;39.564;2.628;2023-03-20T00:21:23;2.90;;;0.70;;
74670;SDS011;63196;39.564;2.628;2023-03-20T00:23:49;0.60;;;0.40;;
74670;SDS011;63196;39.564;2.628;2023-03-20T00:26:15;1.00;;;0.40;;
74670;SDS011;63196;39.564;2.628;2023-03-20T00:28:45;1.60;;;0.60;;
74670;SDS011;63196;39.564;2.628;2023-03-20T00:33:49;3.40;;;0.80;;
74670;SDS011;63196;39.564;2.628;2023-03-20T00:36:15;1.00;;;0.40;;
74670;SDS011;63196;39.564;2.628;2023-03-20T00:38:40;0.60;;;0.30;;
74670;SDS011;63196;39.564;2.628;2023-03-20T00:44:02;2.20;;;0.70;;
74670;SDS011;63196;39.564;2.628;2023-03-20T00:46:31;3.80;;;0.80;;
74670;SDS011;63196;39.564;2.628;2023-03-20T00:48:59;1.80;;;0.60;;
74670;SDS011;63196;39.564;2.628;2023-03-20T00:51:25;1.70;;;0.60;;
74670;SDS011;63196;39.564;2.628;2023-03-20T00:53:51;1.80;;;0.50;;
74670;SDS011;63196;39.564;2.628;2023-03-20T00:57:03;1.40;;;0.60;;
74670;SDS011;63196;39.564;2.628;2023-03-20T00:59:02;2.30;;;0.80;;
74670;SDS011;63196;39.564;2.628;2023-03-20T01:01:28;1.40;;;0.40;;
74670;SDS011;63196;39.564;2.628;2023-03-20T01:03:55;2.30;;;0.50;;
74670;SDS011;63196;39.564;2.628;2023-03-20T01:06:20;1.00;;;0.40;;
74670;SDS011;63196;39.564;2.628;2023-03-20T01:08:45;1.10;;;0.40;;
74670;SDS011;63196;39.564;2.628;2023-03-20T01:11:13;1.80;;;0.50;;
74670;SDS011;63196;39.564;2.628;2023-03-20T01:13:38;1.10;;;0.40;;
74670;SDS011;63196;39.564;2.628;2023-03-20T01:16:05;4.30;;;0.50;;
74670;SDS011;63196;39.564;2.628;2023-03-20T01:18:30;0.90;;;0.30;;
74670;SDS011;63196;39.564;2.628;2023-03-20T01:20:56;0.70;;;0.20;;
74670;SDS011;63196;39.564;2.628;2023-03-20T01:23:21;0.80;;;0.30;;
74670;SDS011;63196;39.564;2.628;2023-03-20T01:25:50;0.40;;;0.20;;
74670;SDS011;63196;39.564;2.628;2023-03-20T01:28:22;0.40;;;0.20;;
74670;SDS011;63196;39.564;2.628;2023-03-20T01:30:48;1.30;;;0.40;;
74670;SDS011;63196;39.564;2.628;2023-03-20T01:33:20;1.20;;;0.20;;
74670;SDS011;63196;39.564;2.628;2023-03-20T01:35:46;0.90;;;0.40;;
74670;SDS011;63196;39.564;2.628;2023-03-20T01:38:24;0.20;;;0.10;;
74670;SDS011;63196;39.564;2.628;2023-03-20T01:43:17;0.80;;;0.40;;
74670;SDS011;63196;39.564;2.628;2023-03-20T01:45:46;1.30;;;0.50;;
74670;SDS011;63196;39.564;2.628;2023-03-20T01:48:15;1.90;;;0.50;;
74670;SDS011;63196;39.564;2.628;2023-03-20T01:50:41;0.50;;;0.20;;
74670;SDS011;63196;39.564;2.628;2023-03-20T01:55:31;0.90;;;0.30;;
74670;SDS011;63196;39.564;2.628;2023-03-20T01:57:58;0.70;;;0.40;;
74670;SDS011;63196;39.564;2.628;2023-03-20T02:00:24;0.50;;;0.20;;
74670;SDS011;63196;39.564;2.628;2023-03-20T02:02:50;0.70;;;0.30;;
74670;SDS011;63196;39.564;2.628;2023-03-20T02:05:16;0.60;;;0.20;;
74670;SDS011;63196;39.564;2.628;2023-03-20T02:07:44;0.30;;;0.10;;
74670;SDS011;63196;39.564;2.628;2023-03-20T02:10:12;1.30;;;0.30;;
74670;SDS011;63196;39.564;2.628;2023-03-20T02:12:37;0.60;;;0.20;;
74670;SDS011;63196;39.564;2.628;2023-03-20T02:15:04;0.70;;;0.10;;
74670;SDS011;63196;39.564;2.628;2023-03-20T02:17:30;0.80;;;0.20;;
74670;SDS011;63196;39.564;2.628;2023-03-20T02:35:19;7.70;;;4.40;;
74670;SDS011;63196;39.564;2.628;2023-03-20T02:37:58;3.40;;;1.20;;
74670;SDS011;63196;39.564;2.628;2023-03-20T02:43:01;6.60;;;2.70;;
74670;SDS011;63196;39.564;2.628;2023-03-20T02:45:30;3.10;;;1.20;;
74670;SDS011;63196;39.564;2.628;2023-03-20T02:55:36;1.50;;;0.60;;
74670;SDS011;63196;39.564;2.628;2023-03-20T03:05:31;1.20;;;0.40;;
74670;SDS011;63196;39.564;2.628;2023-03-20T03:07:58;2.10;;;0.70;;
74670;SDS011;63196;39.564;2.628;2023-03-20T03:10:26;1.10;;;0.30;;
74670;SDS011;63196;39.564;2.628;2023-03-20T03:12:54;1.40;;;0.50;;
74670;SDS011;63196;39.564;2.628;2023-03-20T03:17:46;1.70;;;0.60;;
74670;SDS011;63196;39.564;2.628;2023-03-20T03:20:22;1.10;;;0.40;;
74670;SDS011;63196;39.564;2.628;2023-03-20T03:22:48;1.90;;;0.40;;
74670;SDS011;63196;39.564;2.628;2023-03-20T03:25:14;2.90;;;1.50;;
74670;SDS011;63196;39.564;2.628;2023-03-20T03:27:40;10.70;;;6.10;;
74670;SDS011;63196;39.564;2.628;2023-03-20T03:30:09;4.40;;;2.10;;
74670;SDS011;63196;39.564;2.628;2023-03-20T03:32:47;3.00;;;1.30;;
74670;SDS011;63196;39.564;2.628;2023-03-20T03:35:14;1.40;;;0.50;;
74670;SDS011;63196;39.564;2.628;2023-03-20T03:45:19;2.60;;;0.80;;
74670;SDS011;63196;39.564;2.628;2023-03-20T03:47:53;2.70;;;1.00;;
74670;SDS011;63196;39.564;2.628;2023-03-20T03:50:24;0.90;;;0.40;;
74670;SDS011;63196;39.564;2.628;2023-03-20T03:52:51;2.10;;;0.60;;
74670;SDS011;63196;39.564;2.628;2023-03-20T03:55:21;0.60;;;0.30;;
74670;SDS011;63196;39.564;2.628;2023-03-20T03:57:49;0.90;;;0.40;;
74670;SDS011;63196;39.564;2.628;2023-03-20T04:00:17;1.00;;;0.30;;
74670;SDS011;63196;39.564;2.628;2023-03-20T04:02:45;0.70;;;0.20;;
74670;SDS011;63196;39.564;2.628;2023-03-20T04:05:11;1.70;;;0.50;;
74670;SDS011;63196;39.564;2.628;2023-03-20T04:07:38;1.30;;;0.40;;
74670;SDS011;63196;39.564;2.628;2023-03-20T04:10:03;0.40;;;0.10;;
74670;SDS011;63196;39.564;2.628;2023-03-20T04:14:54;1.20;;;0.40;;
74670;SDS011;63196;39.564;2.628;2023-03-20T04:17:19;0.60;;;0.30;;
74670;SDS011;63196;39.564;2.628;2023-03-20T04:19:44;1.00;;;0.30;;
74670;SDS011;63196;39.564;2.628;2023-03-20T04:22:10;1.10;;;0.30;;
74670;SDS011;63196;39.564;2.628;2023-03-20T04:24:35;0.60;;;0.20;;
74670;SDS011;63196;39.564;2.628;2023-03-20T04:27:01;0.90;;;0.30;;
74670;SDS011;63196;39.564;2.628;2023-03-20T04:29:26;0.90;;;0.20;;
74670;SDS011;63196;39.564;2.628;2023-03-20T04:31:51;0.70;;;0.40;;
74670;SDS011;63196;39.564;2.628;2023-03-20T04:34:17;1.10;;;0.30;;
74670;SDS011;63196;39.564;2.628;2023-03-20T04:36:42;0.50;;;0.20;;
74670;SDS011;63196;39.564;2.628;2023-03-20T04:39:07;0.70;;;0.30;;
74670;SDS011;63196;39.564;2.628;2023-03-20T04:41:33;0.50;;;0.20;;
74670;SDS011;63196;39.564;2.628;2023-03-20T04:43:58;1.10;;;0.30;;
74670;SDS011;63196;39.564;2.628;2023-03-20T04:46:24;0.50;;;0.20;;
74670;SDS011;63196;39.564;2.628;2023-03-20T04:48:49;0.70;;;0.20;;
74670;SDS011;63196;39.564;2.628;2023-03-20T04:51:14;0.60;;;0.20;;
74670;SDS011;63196;39.564;2.628;2023-03-20T04:53:40;0.90;;;0.30;;
74670;SDS011;63196;39.564;2.628;2023-03-20T04:56:05;1.10;;;0.20;;
74670;SDS011;63196;39.564;2.628;2023-03-20T04:58:31;1.00;;;0.30;;
74670;SDS011;63196;39.564;2.628;2023-03-20T05:00:57;0.60;;;0.20;;
74670;SDS011;63196;39.564;2.628;2023-03-20T05:03:22;1.10;;;0.20;;
74670;SDS011;63196;39.564;2.628;2023-03-20T05:05:48;0.20;;;0.10;;
74670;SDS011;63196;39.564;2.628;2023-03-20T05:08:13;0.60;;;0.20;;
74670;SDS011;63196;39.564;2.628;2023-03-20T05:10:38;0.60;;;0.40;;
74670;SDS011;63196;39.564;2.628;2023-03-20T05:13:04;0.90;;;0.40;;
74670;SDS011;63196;39.564;2.628;2023-03-20T05:15:29;0.60;;;0.20;;
74670;SDS011;63196;39.564;2.628;2023-03-20T05:17:54;1.20;;;0.30;;
74670;SDS011;63196;39.564;2.628;2023-03-20T05:20:20;1.20;;;0.30;;
74670;SDS011;63196;39.564;2.628;2023-03-20T05:22:47;2.60;;;0.60;;
74670;SDS011;63196;39.564;2.628;2023-03-20T05:25:12;1.20;;;0.30;;
74670;SDS011;63196;39.564;2.628;2023-03-20T05:27:38;2.10;;;0.50;;
74670;SDS011;63196;39.564;2.628;2023-03-20T05:30:03;0.90;;;0.40;;
74670;SDS011;63196;39.564;2.628;2023-03-20T05:32:29;0.70;;;0.40;;
74670;SDS011;63196;39.564;2.628;2023-03-20T05:34:54;1.00;;;0.40;;
74670;SDS011;63196;39.564;2.628;2023-03-20T05:37:20;1.10;;;0.30;;
74670;SDS011;63196;39.564;2.628;2023-03-20T05:39:45;0.90;;;0.30;;
74670;SDS011;63196;39.564;2.628;2023-03-20T05:42:10;1.70;;;0.50;;
74670;SDS011;63196;39.564;2.628;2023-03-20T05:44:35;1.40;;;0.40;;
74670;SDS011;63196;39.564;2.628;2023-03-20T05:47:01;0.60;;;0.20;;
74670;SDS011;63196;39.564;2.628;2023-03-20T05:49:26;1.80;;;0.30;;
74670;SDS011;63196;39.564;2.628;2023-03-20T05:51:52;1.30;;;0.50;;
74670;SDS011;63196;39.564;2.628;2023-03-20T05:54:17;1.20;;;0.40;;
74670;SDS011;63196;39.564;2.628;2023-03-20T05:56:42;0.70;;;0.20;;
74670;SDS011;63196;39.564;2.628;2023-03-20T05:59:08;1.20;;;0.70;;
74670;SDS011;63196;39.564;2.628;2023-03-20T06:01:34;0.80;;;0.40;;
74670;SDS011;63196;39.564;2.628;2023-03-20T06:04:00;1.20;;;0.70;;
74670;SDS011;63196;39.564;2.628;2023-03-20T06:06:25;1.50;;;0.40;;
74670;SDS011;63196;39.564;2.628;2023-03-20T06:08:51;2.50;;;0.70;;
74670;SDS011;63196;39.564;2.628;2023-03-20T06:11:16;2.30;;;0.80;;
74670;SDS011;63196;39.564;2.628;2023-03-20T06:13:41;0.90;;;0.30;;
74670;SDS011;63196;39.564;2.628;2023-03-20T06:16:07;2.30;;;0.50;;
74670;SDS011;63196;39.564;2.628;2023-03-20T06:18:32;1.30;;;0.40;;
74670;SDS011;63196;39.564;2.628;2023-03-20T06:20:58;1.50;;;0.40;;
74670;SDS011;63196;39.564;2.628;2023-03-20T06:23:23;1.40;;;0.50;;
74670;SDS011;63196;39.564;2.628;2023-03-20T06:25:49;1.90;;;0.70;;
74670;SDS011;63196;39.564;2.628;2023-03-20T06:28:15;2.60;;;0.40;;
74670;SDS011;63196;39.564;2.628;2023-03-20T06:30:41;2.40;;;0.50;;
74670;SDS011;63196;39.564;2.628;2023-03-20T06:33:06;3.10;;;0.90;;
74670;SDS011;63196;39.564;2.628;2023-03-20T06:35:32;1.20;;;0.40;;
74670;SDS011;63196;39.564;2.628;2023-03-20T06:37:57;2.30;;;0.60;;
74670;SDS011;63196;39.564;2.628;2023-03-20T06:40:23;2.10;;;0.60;;
74670;SDS011;63196;39.564;2.628;2023-03-20T06:42:48;2.10;;;0.70;;
74670;SDS011;63196;39.564;2.628;2023-03-20T06:45:14;2.00;;;0.60;;
74670;SDS011;63196;39.564;2.628;2023-03-20T06:47:39;3.40;;;1.10;;
74670;SDS011;63196;39.564;2.628;2023-03-20T06:50:06;5.40;;;0.60;;
74670;SDS011;63196;39.564;2.628;2023-03-20T06:52:31;2.20;;;0.70;;
74670;SDS011;63196;39.564;2.628;2023-03-20T06:54:57;4.60;;;1.30;;
74670;SDS011;63196;39.564;2.628;2023-03-20T06:57:22;2.20;;;0.60;;
74670;SDS011;63196;39.564;2.628;2023-03-20T06:59:48;2.90;;;1.20;;
74670;SDS011;63196;39.564;2.628;2023-03-20T07:02:13;2.60;;;0.80;;
74670;SDS011;63196;39.564;2.628;2023-03-20T07:04:39;2.30;;;0.90;;
74670;SDS011;63196;39.564;2.628;2023-03-20T07:07:05;3.20;;;1.00;;
74670;SDS011;63196;39.564;2.628;2023-03-20T07:09:30;2.70;;;1.10;;
74670;SDS011;63196;39.564;2.628;2023-03-20T07:11:57;2.10;;;1.00;;
74670;SDS011;63196;39.564;2.628;2023-03-20T07:14:22;1.10;;;0.40;;
74670;SDS011;63196;39.564;2.628;2023-03-20T07:16:47;1.60;;;0.70;;
74670;SDS011;63196;39.564;2.628;2023-03-20T07:19:13;3.70;;;0.70;;
74670;SDS011;63196;39.564;2.628;2023-03-20T07:21:38;2.80;;;0.60;;
74670;SDS011;63196;39.564;2.628;2023-03-20T07:24:04;1.30;;;0.40;;
74670;SDS011;63196;39.564;2.628;2023-03-20T07:26:31;2.20;;;0.80;;
74670;SDS011;63196;39.564;2.628;2023-03-20T07:28:56;2.10;;;0.50;;
74670;SDS011;63196;39.564;2.628;2023-03-20T07:31:23;3.00;;;1.10;;
74670;SDS011;63196;39.564;2.628;2023-03-20T07:33:49;3.50;;;1.50;;
74670;SDS011;63196;39.564;2.628;2023-03-20T07:36:14;3.80;;;1.60;;
74670;SDS011;63196;39.564;2.628;2023-03-20T07:38:40;4.70;;;1.60;;
74670;SDS011;63196;39.564;2.628;2023-03-20T07:41:05;5.30;;;2.30;;
74670;SDS011;63196;39.564;2.628;2023-03-20T07:43:31;3.30;;;1.10;;
74670;SDS011;63196;39.564;2.628;2023-03-20T07:45:56;4.60;;;1.80;;
74670;SDS011;63196;39.564;2.628;2023-03-20T07:48:21;6.20;;;1.90;;
74670;SDS011;63196;39.564;2.628;2023-03-20T07:50:47;4.70;;;2.10;;
74670;SDS011;63196;39.564;2.628;2023-03-20T07:53:12;4.90;;;2.40;;
74670;SDS011;63196;39.564;2.628;2023-03-20T07:55:38;5.10;;;2.40;;
74670;SDS011;63196;39.564;2.628;2023-03-20T07:58:03;4.10;;;2.40;;
74670;SDS011;63196;39.564;2.628;2023-03-20T08:00:28;4.20;;;2.10;;
74670;SDS011;63196;39.564;2.628;2023-03-20T08:02:55;5.20;;;2.20;;
74670;SDS011;63196;39.564;2.628;2023-03-20T08:05:21;4.40;;;1.80;;
74670;SDS011;63196;39.564;2.628;2023-03-20T08:07:46;5.70;;;2.50;;
74670;SDS011;63196;39.564;2.628;2023-03-20T08:10:12;5.00;;;1.70;;
74670;SDS011;63196;39.564;2.628;2023-03-20T08:12:37;3.90;;;1.60;;
74670;SDS011;63196;39.564;2.628;2023-03-20T08:15:03;3.50;;;1.50;;
74670;SDS011;63196;39.564;2.628;2023-03-20T08:17:28;4.10;;;1.30;;
74670;SDS011;63196;39.564;2.628;2023-03-20T08:19:54;3.40;;;1.50;;
74670;SDS011;63196;39.564;2.628;2023-03-20T08:22:19;3.70;;;1.80;;
74670;SDS011;63196;39.564;2.628;2023-03-20T08:24:45;3.70;;;1.70;;
74670;SDS011;63196;39.564;2.628;2023-03-20T08:27:10;4.20;;;2.10;;
74670;SDS011;63196;39.564;2.628;2023-03-20T08:29:35;8.10;;;2.00;;
74670;SDS011;63196;39.564;2.628;2023-03-20T08:32:01;3.90;;;1.60;;
74670;SDS011;63196;39.564;2.628;2023-03-20T08:34:26;4.50;;;1.90;;
74670;SDS011;63196;39.564;2.628;2023-03-20T08:36:51;3.80;;;1.50;;
74670;SDS011;63196;39.564;2.628;2023-03-20T08:39:17;3.90;;;2.00;;
74670;SDS011;63196;39.564;2.628;2023-03-20T08:41:42;5.50;;;2.50;;
74670;SDS011;63196;39.564;2.628;2023-03-20T08:44:10;4.70;;;2.00;;
74670;SDS011;63196;39.564;2.628;2023-03-20T08:46:35;5.30;;;1.50;;
74670;SDS011;63196;39.564;2.628;2023-03-20T08:49:01;4.00;;;1.50;;
74670;SDS011;63196;39.564;2.628;2023-03-20T08:51:26;3.70;;;1.60;;
74670;SDS011;63196;39.564;2.628;2023-03-20T08:53:52;4.80;;;2.00;;
74670;SDS011;63196;39.564;2.628;2023-03-20T08:56:17;3.10;;;1.50;;
74670;SDS011;63196;39.564;2.628;2023-03-20T08:58:43;3.50;;;1.70;;
74670;SDS011;63196;39.564;2.628;2023-03-20T09:01:08;5.40;;;1.70;;
74670;SDS011;63196;39.564;2.628;2023-03-20T09:03:34;4.50;;;2.00;;
74670;SDS011;63196;39.564;2.628;2023-03-20T09:06:00;4.60;;;1.70;;
74670;SDS011;63196;39.564;2.628;2023-03-20T09:08:25;4.30;;;1.80;;
74670;SDS011;63196;39.564;2.628;2023-03-20T09:10:51;4.10;;;2.20;;
74670;SDS011;63196;39.564;2.628;2023-03-20T09:13:16;5.40;;;2.00;;
74670;SDS011;63196;39.564;2.628;2023-03-20T09:15:42;6.00;;;3.40;;
74670;SDS011;63196;39.564;2.628;2023-03-20T09:18:07;7.70;;;4.60;;
74670;SDS011;63196;39.564;2.628;2023-03-20T09:20:33;7.60;;;4.60;;
74670;SDS011;63196;39.564;2.628;2023-03-20T09:22:58;6.20;;;3.70;;
74670;SDS011;63196;39.564;2.628;2023-03-20T09:25:24;4.40;;;2.00;;
74670;SDS011;63196;39.564;2.628;2023-03-20T09:27:50;4.00;;;1.70;;
74670;SDS011;63196;39.564;2.628;2023-03-20T09:30:15;3.10;;;1.40;;
74670;SDS011;63196;39.564;2.628;2023-03-20T09:32:41;3.30;;;1.40;;
74670;SDS011;63196;39.564;2.628;2023-03-20T09:35:06;3.00;;;1.50;;
74670;SDS011;63196;39.564;2.628;2023-03-20T09:37:32;3.50;;;1.20;;
74670;SDS011;63196;39.564;2.628;2023-03-20T09:39:57;3.90;;;1.30;;
74670;SDS011;63196;39.564;2.628;2023-03-20T09:52:55;3.00;;;0.90;;
74670;SDS011;63196;39.564;2.628;2023-03-20T09:55:22;2.50;;;1.00;;
74670;SDS011;63196;39.564;2.628;2023-03-20T09:57:51;3.00;;;1.00;;
74670;SDS011;63196;39.564;2.628;2023-03-20T10:02:58;4.30;;;0.90;;
74670;SDS011;63196;39.564;2.628;2023-03-20T10:05:34;1.70;;;0.70;;
74670;SDS011;63196;39.564;2.628;2023-03-20T10:08:03;2.40;;;0.80;;
74670;SDS011;63196;39.564;2.628;2023-03-20T10:18:28;5.40;;;0.90;;
74670;SDS011;63196;39.564;2.628;2023-03-20T10:20:56;2.80;;;1.00;;
74670;SDS011;63196;39.564;2.628;2023-03-20T10:25:49;2.80;;;0.70;;
74670;SDS011;63196;39.564;2.628;2023-03-20T10:28:21;3.30;;;0.80;;
74670;SDS011;63196;39.564;2.628;2023-03-20T10:31:34;2.40;;;0.90;;
74670;SDS011;63196;39.564;2.628;2023-03-20T10:41:43;3.10;;;0.80;;
74670;SDS011;63196;39.564;2.628;2023-03-20T10:44:15;2.40;;;0.60;;
74670;SDS011;63196;39.564;2.628;2023-03-20T10:46:42;2.20;;;0.50;;
74670;SDS011;63196;39.564;2.628;2023-03-20T10:49:15;3.30;;;0.70;;
74670;SDS011;63196;39.564;2.628;2023-03-20T10:54:42;6.70;;;0.60;;
74670;SDS011;63196;39.564;2.628;2023-03-20T10:57:01;6.40;;;0.70;;
74670;SDS011;63196;39.564;2.628;2023-03-20T10:59:28;0.90;;;0.30;;
74670;SDS011;63196;39.564;2.628;2023-03-20T11:01:55;1.60;;;0.30;;
74670;SDS011;63196;39.564;2.628;2023-03-20T11:04:20;1.30;;;0.20;;
74670;SDS011;63196;39.564;2.628;2023-03-20T11:09:24;2.60;;;0.20;;
74670;SDS011;63196;39.564;2.628;2023-03-20T11:12:00;0.50;;;0.30;;
74670;SDS011;63196;39.564;2.628;2023-03-20T11:19:17;0.80;;;0.30;;
74670;SDS011;63196;39.564;2.628;2023-03-20T11:21:44;0.80;;;0.20;;
74670;SDS011;63196;39.564;2.628;2023-03-20T11:29:01;2.30;;;0.40;;
74670;SDS011;63196;39.564;2.628;2023-03-20T11:36:36;4.20;;;0.60;;
74670;SDS011;63196;39.564;2.628;2023-03-20T11:39:13;3.10;;;0.40;;
74670;SDS011;63196;39.564;2.628;2023-03-20T11:41:46;0.90;;;0.30;;
74670;SDS011;63196;39.564;2.628;2023-03-20T11:44:45;1.30;;;0.20;;
74670;SDS011;63196;39.564;2.628;2023-03-20T11:47:10;2.00;;;0.40;;
74670;SDS011;63196;39.564;2.628;2023-03-20T11:49:46;1.50;;;0.10;;
74670;SDS011;63196;39.564;2.628;2023-03-20T11:52:14;0.50;;;0.40;;
74670;SDS011;63196;39.564;2.628;2023-03-20T11:54:45;0.50;;;0.10;;
74670;SDS011;63196;39.564;2.628;2023-03-20T11:57:25;2.00;;;0.40;;
74670;SDS011;63196;39.564;2.628;2023-03-20T11:59:52;1.00;;;0.30;;
74670;SDS011;63196;39.564;2.628;2023-03-20T12:02:20;3.20;;;0.50;;
74670;SDS011;63196;39.564;2.628;2023-03-20T12:04:47;1.70;;;0.40;;
74670;SDS011;63196;39.564;2.628;2023-03-20T12:07:13;0.90;;;0.40;;
74670;SDS011;63196;39.564;2.628;2023-03-20T12:09:51;0.20;;;0.10;;
74670;SDS011;63196;39.564;2.628;2023-03-20T12:15:21;0.70;;;0.20;;
74670;SDS011;63196;39.564;2.628;2023-03-20T12:17:50;2.40;;;0.50;;
74670;SDS011;63196;39.564;2.628;2023-03-20T12:22:57;1.30;;;0.30;;
74670;SDS011;63196;39.564;2.628;2023-03-20T12:35:55;1.40;;;0.50;;
74670;SDS011;63196;39.564;2.628;2023-03-20T12:38:26;1.90;;;0.70;;
74670;SDS011;63196;39.564;2.628;2023-03-20T12:41:13;4.30;;;0.70;;
74670;SDS011;63196;39.564;2.628;2023-03-20T12:54:23;2.20;;;0.60;;
74670;SDS011;63196;39.564;2.628;2023-03-20T12:59:26;1.80;;;0.50;;
74670;SDS011;63196;39.564;2.628;2023-03-20T13:01:57;1.50;;;0.50;;
74670;SDS011;63196;39.564;2.628;2023-03-20T13:14:34;3.20;;;0.80;;
74670;SDS011;63196;39.564;2.628;2023-03-20T13:17:09;2.80;;;0.70;;
74670;SDS011;63196;39.564;2.628;2023-03-20T13:30:15;2.70;;;0.50;;
74670;SDS011;63196;39.564;2.628;2023-03-20T13:37:37;3.70;;;0.90;;
74670;SDS011;63196;39.564;2.628;2023-03-20T13:40:25;3.70;;;0.70;;
74670;SDS011;63196;39.564;2.628;2023-03-20T13:42:53;2.30;;;0.50;;
74670;SDS011;63196;39.564;2.628;2023-03-20T13:45:38;2.20;;;0.70;;
74670;SDS011;63196;39.564;2.628;2023-03-20T13:53:09;2.80;;;0.70;;
74670;SDS011;63196;39.564;2.628;2023-03-20T14:03:21;3.20;;;0.50;;
74670;SDS011;63196;39.564;2.628;2023-03-20T14:05:48;2.30;;;0.60;;
74670;SDS011;63196;39.564;2.628;2023-03-20T14:13:29;2.70;;;0.90;;
74670;SDS011;63196;39.564;2.628;2023-03-20T14:15:55;5.00;;;0.90;;
74670;SDS011;63196;39.564;2.628;2023-03-20T14:18:21;2.40;;;0.40;;
74670;SDS011;63196;39.564;2.628;2023-03-20T14:23:16;6.40;;;0.80;;
74670;SDS011;63196;39.564;2.628;2023-03-20T14:25:42;5.80;;;1.00;;
74670;SDS011;63196;39.564;2.628;2023-03-20T14:30:41;6.10;;;1.20;;
74670;SDS011;63196;39.564;2.628;2023-03-20T14:33:22;1.60;;;0.50;;
74670;SDS011;63196;39.564;2.628;2023-03-20T14:41:14;4.40;;;1.10;;
74670;SDS011;63196;39.564;2.628;2023-03-20T14:48:53;3.90;;;0.90;;
74670;SDS011;63196;39.564;2.628;2023-03-20T14:51:25;4.20;;;0.70;;
74670;SDS011;63196;39.564;2.628;2023-03-20T14:54:21;2.70;;;0.70;;
74670;SDS011;63196;39.564;2.628;2023-03-20T14:56:43;2.10;;;0.70;;
74670;SDS011;63196;39.564;2.628;2023-03-20T14:59:09;2.10;;;0.70;;
74670;SDS011;63196;39.564;2.628;2023-03-20T15:06:44;6.80;;;1.60;;
74670;SDS011;63196;39.564;2.628;2023-03-20T15:09:11;2.80;;;0.80;;
74670;SDS011;63196;39.564;2.628;2023-03-20T15:11:37;2.60;;;0.80;;
74670;SDS011;63196;39.564;2.628;2023-03-20T15:14:05;3.10;;;0.70;;
74670;SDS011;63196;39.564;2.628;2023-03-20T15:16:32;3.00;;;1.10;;
74670;SDS011;63196;39.564;2.628;2023-03-20T15:18:58;3.40;;;0.60;;
74670;SDS011;63196;39.564;2.628;2023-03-20T15:21:28;2.30;;;0.60;;
74670;SDS011;63196;39.564;2.628;2023-03-20T15:23:55;2.00;;;0.60;;
74670;SDS011;63196;39.564;2.628;2023-03-20T15:26:21;5.00;;;0.70;;
74670;SDS011;63196;39.564;2.628;2023-03-20T15:28:49;3.40;;;0.80;;
74670;SDS011;63196;39.564;2.628;2023-03-20T15:31:34;2.50;;;0.70;;
74670;SDS011;63196;39.564;2.628;2023-03-20T15:34:02;2.70;;;0.70;;
74670;SDS011;63196;39.564;2.628;2023-03-20T15:36:29;1.40;;;0.40;;
74670;SDS011;63196;39.564;2.628;2023-03-20T15:41:42;2.00;;;0.60;;
74670;SDS011;63196;39.564;2.628;2023-03-20T15:46:40;3.50;;;0.80;;
74670;SDS011;63196;39.564;2.628;2023-03-20T15:49:05;4.00;;;0.70;;
74670;SDS011;63196;39.564;2.628;2023-03-20T15:51:31;2.70;;;0.60;;
74670;SDS011;63196;39.564;2.628;2023-03-20T15:53:59;1.40;;;0.50;;
74670;SDS011;63196;39.564;2.628;2023-03-20T15:56:25;1.70;;;0.60;;
74670;SDS011;63196;39.564;2.628;2023-03-20T15:58:51;4.30;;;0.70;;
74670;SDS011;63196;39.564;2.628;2023-03-20T16:01:18;2.90;;;0.50;;
74670;SDS011;63196;39.564;2.628;2023-03-20T16:03:44;1.50;;;0.50;;
74670;SDS011;63196;39.564;2.628;2023-03-20T16:06:10;1.10;;;0.40;;
74670;SDS011;63196;39.564;2.628;2023-03-20T16:08:38;1.40;;;0.50;;
74670;SDS011;63196;39.564;2.628;2023-03-20T16:11:04;2.60;;;0.60;;
74670;SDS011;63196;39.564;2.628;2023-03-20T16:13:49;3.10;;;0.90;;
74670;SDS011;63196;39.564;2.628;2023-03-20T16:16:22;2.40;;;0.50;;
74670;SDS011;63196;39.564;2.628;2023-03-20T16:18:48;2.20;;;0.60;;
74670;SDS011;63196;39.564;2.628;2023-03-20T16:21:17;3.40;;;0.70;;
74670;SDS011;63196;39.564;2.628;2023-03-20T16:23:43;1.30;;;0.50;;
74670;SDS011;63196;39.564;2.628;2023-03-20T16:26:19;1.00;;;0.40;;
74670;SDS011;63196;39.564;2.628;2023-03-20T16:28:46;2.00;;;0.70;;
74670;SDS011;63196;39.564;2.628;2023-03-20T16:31:16;2.10;;;0.50;;
74670;SDS011;63196;39.564;2.628;2023-03-20T16:33:42;2.00;;;0.70;;
74670;SDS011;63196;39.564;2.628;2023-03-20T16:36:08;2.90;;;0.60;;
74670;SDS011;63196;39.564;2.628;2023-03-20T16:38:37;1.00;;;0.40;;
74670;SDS011;63196;39.564;2.628;2023-03-20T16:43:44;1.70;;;0.60;;
74670;SDS011;63196;39.564;2.628;2023-03-20T16:46:09;2.00;;;0.30;;
74670;SDS011;63196;39.564;2.628;2023-03-20T16:48:35;2.20;;;0.40;;
74670;SDS011;63196;39.564;2.628;2023-03-20T16:53:43;1.90;;;0.50;;
74670;SDS011;63196;39.564;2.628;2023-03-20T16:56:13;1.30;;;0.50;;
74670;SDS011;63196;39.564;2.628;2023-03-20T16:58:40;1.70;;;0.50;;
74670;SDS011;63196;39.564;2.628;2023-03-20T17:01:13;1.50;;;0.40;;
74670;SDS011;63196;39.564;2.628;2023-03-20T17:08:41;1.50;;;0.40;;
74670;SDS011;63196;39.564;2.628;2023-03-20T17:11:11;1.30;;;0.50;;
74670;SDS011;63196;39.564;2.628;2023-03-20T17:13:37;1.50;;;0.50;;
74670;SDS011;63196;39.564;2.628;2023-03-20T17:16:03;2.10;;;0.60;;
74670;SDS011;63196;39.564;2.628;2023-03-20T17:18:28;2.10;;;0.70;;
74670;SDS011;63196;39.564;2.628;2023-03-20T17:20:55;2.00;;;0.60;;
74670;SDS011;63196;39.564;2.628;2023-03-20T17:23:21;2.80;;;0.60;;
74670;SDS011;63196;39.564;2.628;2023-03-20T17:25:47;2.00;;;0.80;;
74670;SDS011;63196;39.564;2.628;2023-03-20T17:28:15;1.60;;;0.60;;
74670;SDS011;63196;39.564;2.628;2023-03-20T17:30:41;2.20;;;0.60;;
74670;SDS011;63196;39.564;2.628;2023-03-20T17:33:16;1.70;;;0.60;;
74670;SDS011;63196;39.564;2.628;2023-03-20T17:35:43;1.30;;;0.40;;
74670;SDS011;63196;39.564;2.628;2023-03-20T17:38:13;2.90;;;0.80;;
74670;SDS011;63196;39.564;2.628;2023-03-20T17:40:40;2.30;;;0.60;;
74670;SDS011;63196;39.564;2.628;2023-03-20T17:43:08;3.30;;;1.00;;
74670;SDS011;63196;39.564;2.628;2023-03-20T17:45:34;2.50;;;0.70;;
74670;SDS011;63196;39.564;2.628;2023-03-20T17:47:59;1.80;;;0.50;;
74670;SDS011;63196;39.564;2.628;2023-03-20T17:50:25;1.00;;;0.40;;
74670;SDS011;63196;39.564;2.628;2023-03-20T17:52:51;1.60;;;0.50;;
74670;SDS011;63196;39.564;2.628;2023-03-20T17:55:17;1.70;;;0.50;;
74670;SDS011;63196;39.564;2.628;2023-03-20T17:57:43;2.20;;;0.70;;
74670;SDS011;63196;39.564;2.628;2023-03-20T18:00:12;4.10;;;0.80;;
74670;SDS011;63196;39.564;2.628;2023-03-20T18:02:39;1.30;;;0.40;;
74670;SDS011;63196;39.564;2.628;2023-03-20T18:05:04;2.60;;;0.60;;
74670;SDS011;63196;39.564;2.628;2023-03-20T18:07:32;2.80;;;0.90;;
74670;SDS011;63196;39.564;2.628;2023-03-20T18:09:57;1.20;;;0.40;;
74670;SDS011;63196;39.564;2.628;2023-03-20T18:12:22;1.00;;;0.20;;
74670;SDS011;63196;39.564;2.628;2023-03-20T18:14:48;1.80;;;0.60;;
74670;SDS011;63196;39.564;2.628;2023-03-20T18:17:14;2.30;;;0.70;;
74670;SDS011;63196;39.564;2.628;2023-03-20T18:19:40;3.10;;;0.70;;
74670;SDS011;63196;39.564;2.628;2023-03-20T18:22:06;0.80;;;0.40;;
74670;SDS011;63196;39.564;2.628;2023-03-20T18:24:31;1.80;;;0.50;;
74670;SDS011;63196;39.564;2.628;2023-03-20T18:26:57;2.60;;;0.60;;